Aviation Digital Data Service (ADDS)

Output produced by METARs form (2102 UTC 20 October 2018)
found at http://www.aviationweather.gov/metar/data/
 
METAR text: KFAM 202056Z AUTO 31016G21KT 10SM CLR 18/00 A3012 RMK AO2 PK WND 30026/2002 SLP196 T01780000 55003
Conditions at: KFAM (FARMINGTON , MO, US) observed 2056 UTC 20 October 2018
Temperature: 17.8°C (64°F)
Dewpoint: 0.0°C (32°F) [RH = 30%]
Pressure (altimeter): 30.12 inches Hg (1020.1 mb)
[Sea-level pressure: 1019.6 mb]
Winds: from the NW (310 degrees) at 18 MPH (16 knots; 8.2 m/s)
gusting to 24 MPH (21 knots; 10.8 m/s)
Visibility: 10 or more miles (16+ km)
Ceiling: at least 12,000 feet AGL
Clouds: sky clear below 12,000 feet AGL
Weather: automated observation with no human augmentation;
there may or may not be significant weather present at this time